Terminal Aerodrome Forecast
Issued by NWS Grand Rapids, MI

Home | Current Version | Previous Version | Text Only | Print | Product List | Glossary On
Versions: 1 2 3 4 5 6 7 8 9 10 11 12 13 14 15 16 17 18
000
FTUS43 KGRR 062300
TAFGRR
TAF
KGRR 062340Z 0700/0724 21010KT P6SM VCSH BKN050
      TEMPO 0702/0704 BKN025
     FM070400 23012KT P6SM BKN020
     FM070900 24008KT P6SM VCSH BKN025
     FM071800 25014G22KT P6SM VCSH BKN025 OVC070=

USA.gov is the U.S. government's official web portal to all federal, state and local government web resources and services.